sensor_id;sensor_type;location;lat;lon;timestamp;temperature;humidity
336;DHT22;156;48.738;9.228;2023-07-31T00:00:54;16.00;1.00
336;DHT22;156;48.738;9.228;2023-07-31T00:03:21;16.00;1.00
336;DHT22;156;48.738;9.228;2023-07-31T00:05:48;15.90;1.00
336;DHT22;156;48.738;9.228;2023-07-31T00:08:16;15.80;1.00
336;DHT22;156;48.738;9.228;2023-07-31T00:10:43;15.70;1.00
336;DHT22;156;48.738;9.228;2023-07-31T00:13:10;15.70;1.00
336;DHT22;156;48.738;9.228;2023-07-31T00:15:37;15.70;1.00
336;DHT22;156;48.738;9.228;2023-07-31T00:18:04;15.60;1.00
336;DHT22;156;48.738;9.228;2023-07-31T00:20:31;15.50;1.00
336;DHT22;156;48.738;9.228;2023-07-31T00:22:57;15.40;1.00
336;DHT22;156;48.738;9.228;2023-07-31T00:25:26;15.40;1.00
336;DHT22;156;48.738;9.228;2023-07-31T00:27:52;15.30;1.00
336;DHT22;156;48.738;9.228;2023-07-31T00:30:19;15.40;1.00
336;DHT22;156;48.738;9.228;2023-07-31T00:32:48;15.30;1.00
336;DHT22;156;48.738;9.228;2023-07-31T00:35:15;15.30;3.50
336;DHT22;156;48.738;9.228;2023-07-31T00:37:42;15.20;8.70
336;DHT22;156;48.738;9.228;2023-07-31T00:40:09;15.20;15.90
336;DHT22;156;48.738;9.228;2023-07-31T00:42:37;15.10;21.40
336;DHT22;156;48.738;9.228;2023-07-31T00:45:05;15.10;31.00
336;DHT22;156;48.738;9.228;2023-07-31T00:47:32;15.00;41.10
336;DHT22;156;48.738;9.228;2023-07-31T00:49:59;15.00;42.60
336;DHT22;156;48.738;9.228;2023-07-31T00:52:26;15.00;42.50
336;DHT22;156;48.738;9.228;2023-07-31T00:54:53;15.00;45.90
336;DHT22;156;48.738;9.228;2023-07-31T00:57:20;15.10;47.10
336;DHT22;156;48.738;9.228;2023-07-31T00:59:48;15.00;51.00
336;DHT22;156;48.738;9.228;2023-07-31T01:05:47;15.10;52.20
336;DHT22;156;48.738;9.228;2023-07-31T01:08:22;15.00;55.60
336;DHT22;156;48.738;9.228;2023-07-31T01:10:58;13.90;55.40
336;DHT22;156;48.738;9.228;2023-07-31T01:13:27;14.90;61.10
336;DHT22;156;48.738;9.228;2023-07-31T01:15:56;14.90;61.40
336;DHT22;156;48.738;9.228;2023-07-31T01:18:22;14.90;62.20
336;DHT22;156;48.738;9.228;2023-07-31T01:20:57;14.90;66.60
336;DHT22;156;48.738;9.228;2023-07-31T01:24:07;14.90;63.80
336;DHT22;156;48.738;9.228;2023-07-31T01:26:38;14.90;63.30
336;DHT22;156;48.738;9.228;2023-07-31T01:29:11;14.90;65.90
336;DHT22;156;48.738;9.228;2023-07-31T01:31:42;14.90;62.10
336;DHT22;156;48.738;9.228;2023-07-31T01:34:22;15.00;65.00
336;DHT22;156;48.738;9.228;2023-07-31T01:36:58;14.90;62.70
336;DHT22;156;48.738;9.228;2023-07-31T01:39:26;14.80;64.20
336;DHT22;156;48.738;9.228;2023-07-31T01:41:59;14.90;65.50
336;DHT22;156;48.738;9.228;2023-07-31T01:44:30;14.90;65.90
336;DHT22;156;48.738;9.228;2023-07-31T01:47:05;14.90;65.50
336;DHT22;156;48.738;9.228;2023-07-31T01:49:32;14.80;66.80
336;DHT22;156;48.738;9.228;2023-07-31T01:52:09;14.80;70.30
336;DHT22;156;48.738;9.228;2023-07-31T01:54:36;14.80;68.30
336;DHT22;156;48.738;9.228;2023-07-31T02:03:56;14.80;65.10
336;DHT22;156;48.738;9.228;2023-07-31T02:06:28;15.10;69.60
336;DHT22;156;48.738;9.228;2023-07-31T02:09:28;14.80;69.70
336;DHT22;156;48.738;9.228;2023-07-31T02:11:59;14.80;71.20
336;DHT22;156;48.738;9.228;2023-07-31T02:14:35;14.80;70.50
336;DHT22;156;48.738;9.228;2023-07-31T02:17:25;14.80;67.40
336;DHT22;156;48.738;9.228;2023-07-31T02:19:53;14.80;66.90
336;DHT22;156;48.738;9.228;2023-07-31T02:22:24;14.80;61.80
336;DHT22;156;48.738;9.228;2023-07-31T02:24:52;13.70;60.90
336;DHT22;156;48.738;9.228;2023-07-31T02:27:22;14.50;58.50
336;DHT22;156;48.738;9.228;2023-07-31T02:29:55;14.90;60.40
336;DHT22;156;48.738;9.228;2023-07-31T02:32:27;15.10;64.70
336;DHT22;156;48.738;9.228;2023-07-31T02:34:55;14.80;70.40
336;DHT22;156;48.738;9.228;2023-07-31T02:37:25;14.70;73.30
336;DHT22;156;48.738;9.228;2023-07-31T02:39:52;15.80;76.00
336;DHT22;156;48.738;9.228;2023-07-31T02:42:22;14.90;78.20
336;DHT22;156;48.738;9.228;2023-07-31T02:45:05;15.90;76.50
336;DHT22;156;48.738;9.228;2023-07-31T02:47:45;14.60;83.20
336;DHT22;156;48.738;9.228;2023-07-31T02:50:15;14.70;86.60
336;DHT22;156;48.738;9.228;2023-07-31T02:52:42;14.70;87.00
336;DHT22;156;48.738;9.228;2023-07-31T02:55:09;14.50;87.80
336;DHT22;156;48.738;9.228;2023-07-31T02:57:36;14.50;88.00
336;DHT22;156;48.738;9.228;2023-07-31T03:00:08;14.50;88.70
336;DHT22;156;48.738;9.228;2023-07-31T03:02:37;14.50;90.10
336;DHT22;156;48.738;9.228;2023-07-31T03:05:04;14.50;90.00
336;DHT22;156;48.738;9.228;2023-07-31T03:07:36;14.50;90.00
336;DHT22;156;48.738;9.228;2023-07-31T03:10:06;14.50;90.40
336;DHT22;156;48.738;9.228;2023-07-31T03:12:36;13.10;90.00
336;DHT22;156;48.738;9.228;2023-07-31T03:15:09;14.50;91.20
336;DHT22;156;48.738;9.228;2023-07-31T03:17:36;14.50;90.60
336;DHT22;156;48.738;9.228;2023-07-31T03:20:24;14.40;92.90
336;DHT22;156;48.738;9.228;2023-07-31T03:22:51;14.30;95.80
336;DHT22;156;48.738;9.228;2023-07-31T03:25:18;14.60;97.90
336;DHT22;156;48.738;9.228;2023-07-31T03:27:45;14.10;99.90
336;DHT22;156;48.738;9.228;2023-07-31T03:30:22;14.10;99.90
336;DHT22;156;48.738;9.228;2023-07-31T03:32:48;14.10;99.90
336;DHT22;156;48.738;9.228;2023-07-31T03:35:18;14.10;99.90
336;DHT22;156;48.738;9.228;2023-07-31T03:37:47;14.00;99.90
336;DHT22;156;48.738;9.228;2023-07-31T03:40:13;14.00;99.90
336;DHT22;156;48.738;9.228;2023-07-31T03:42:40;14.00;99.90
336;DHT22;156;48.738;9.228;2023-07-31T03:45:08;14.00;99.90
336;DHT22;156;48.738;9.228;2023-07-31T03:47:39;14.00;99.90
336;DHT22;156;48.738;9.228;2023-07-31T03:50:09;14.10;99.50
336;DHT22;156;48.738;9.228;2023-07-31T03:52:36;14.00;99.90
336;DHT22;156;48.738;9.228;2023-07-31T03:55:03;14.10;99.90
336;DHT22;156;48.738;9.228;2023-07-31T03:57:30;14.20;96.60
336;DHT22;156;48.738;9.228;2023-07-31T03:59:58;14.30;92.00
336;DHT22;156;48.738;9.228;2023-07-31T04:02:25;14.30;87.40
336;DHT22;156;48.738;9.228;2023-07-31T04:04:53;14.40;83.60
336;DHT22;156;48.738;9.228;2023-07-31T04:07:20;14.40;81.00
336;DHT22;156;48.738;9.228;2023-07-31T04:09:47;14.50;71.50
336;DHT22;156;48.738;9.228;2023-07-31T04:12:14;14.50;70.90
336;DHT22;156;48.738;9.228;2023-07-31T04:14:41;14.60;66.90
336;DHT22;156;48.738;9.228;2023-07-31T04:17:11;14.70;65.00
336;DHT22;156;48.738;9.228;2023-07-31T04:19:39;14.80;58.90
336;DHT22;156;48.738;9.228;2023-07-31T04:22:09;14.80;55.60
336;DHT22;156;48.738;9.228;2023-07-31T04:24:39;14.90;47.30
336;DHT22;156;48.738;9.228;2023-07-31T04:27:06;15.00;47.00
336;DHT22;156;48.738;9.228;2023-07-31T04:29:33;15.10;41.80
336;DHT22;156;48.738;9.228;2023-07-31T04:32:12;15.10;40.30
336;DHT22;156;48.738;9.228;2023-07-31T04:34:41;15.10;37.60
336;DHT22;156;48.738;9.228;2023-07-31T04:37:09;15.20;37.40
336;DHT22;156;48.738;9.228;2023-07-31T04:39:36;15.20;36.80
336;DHT22;156;48.738;9.228;2023-07-31T04:42:03;15.20;41.50
336;DHT22;156;48.738;9.228;2023-07-31T04:44:30;15.30;37.90
336;DHT22;156;48.738;9.228;2023-07-31T04:46:59;15.30;37.20
336;DHT22;156;48.738;9.228;2023-07-31T04:49:27;15.20;43.50
336;DHT22;156;48.738;9.228;2023-07-31T04:51:54;15.20;41.10
336;DHT22;156;48.738;9.228;2023-07-31T04:54:22;15.30;41.70
336;DHT22;156;48.738;9.228;2023-07-31T04:56:49;15.30;41.80
336;DHT22;156;48.738;9.228;2023-07-31T04:59:16;15.40;38.20
336;DHT22;156;48.738;9.228;2023-07-31T05:01:43;15.40;35.60
336;DHT22;156;48.738;9.228;2023-07-31T05:04:15;15.40;29.90
336;DHT22;156;48.738;9.228;2023-07-31T05:09:32;15.40;30.70
336;DHT22;156;48.738;9.228;2023-07-31T05:11:59;15.50;30.90
336;DHT22;156;48.738;9.228;2023-07-31T05:14:26;15.50;29.90
336;DHT22;156;48.738;9.228;2023-07-31T05:16:53;15.50;25.80
336;DHT22;156;48.738;9.228;2023-07-31T05:19:20;15.50;29.00
336;DHT22;156;48.738;9.228;2023-07-31T05:21:47;15.50;29.60
336;DHT22;156;48.738;9.228;2023-07-31T05:24:14;15.50;28.30
336;DHT22;156;48.738;9.228;2023-07-31T05:26:42;15.50;27.90
336;DHT22;156;48.738;9.228;2023-07-31T05:29:09;15.50;28.50
336;DHT22;156;48.738;9.228;2023-07-31T05:31:36;15.50;30.00
336;DHT22;156;48.738;9.228;2023-07-31T05:34:03;15.50;30.10
336;DHT22;156;48.738;9.228;2023-07-31T05:36:30;15.50;29.80
336;DHT22;156;48.738;9.228;2023-07-31T05:38:59;15.60;31.70
336;DHT22;156;48.738;9.228;2023-07-31T05:41:35;15.60;32.10
336;DHT22;156;48.738;9.228;2023-07-31T05:44:06;15.60;28.90
336;DHT22;156;48.738;9.228;2023-07-31T05:46:33;15.70;27.40
336;DHT22;156;48.738;9.228;2023-07-31T05:49:00;15.70;24.10
336;DHT22;156;48.738;9.228;2023-07-31T05:51:29;15.90;21.70
336;DHT22;156;48.738;9.228;2023-07-31T05:53:56;15.90;21.60
336;DHT22;156;48.738;9.228;2023-07-31T05:56:23;16.00;19.40
336;DHT22;156;48.738;9.228;2023-07-31T05:58:50;16.10;18.90
336;DHT22;156;48.738;9.228;2023-07-31T06:01:18;16.10;14.50
336;DHT22;156;48.738;9.228;2023-07-31T06:03:46;16.20;15.90
336;DHT22;156;48.738;9.228;2023-07-31T06:06:13;16.20;11.70
336;DHT22;156;48.738;9.228;2023-07-31T06:08:40;16.30;10.20
336;DHT22;156;48.738;9.228;2023-07-31T06:11:07;16.30;10.40
336;DHT22;156;48.738;9.228;2023-07-31T06:13:35;16.60;10.20
336;DHT22;156;48.738;9.228;2023-07-31T06:16:01;16.50;6.50
336;DHT22;156;48.738;9.228;2023-07-31T06:18:34;16.60;1.20
336;DHT22;156;48.738;9.228;2023-07-31T06:21:01;16.60;1.00
336;DHT22;156;48.738;9.228;2023-07-31T06:23:27;16.60;1.00
336;DHT22;156;48.738;9.228;2023-07-31T06:25:54;16.70;1.00
336;DHT22;156;48.738;9.228;2023-07-31T06:28:23;16.60;1.00
336;DHT22;156;48.738;9.228;2023-07-31T06:30:57;16.70;1.00
336;DHT22;156;48.738;9.228;2023-07-31T06:33:27;16.80;1.00
336;DHT22;156;48.738;9.228;2023-07-31T06:35:55;16.90;1.00
336;DHT22;156;48.738;9.228;2023-07-31T06:38:26;17.00;1.00
336;DHT22;156;48.738;9.228;2023-07-31T06:40:54;17.10;1.00
336;DHT22;156;48.738;9.228;2023-07-31T06:43:24;17.20;1.00
336;DHT22;156;48.738;9.228;2023-07-31T06:45:54;17.40;1.00
336;DHT22;156;48.738;9.228;2023-07-31T06:48:21;17.50;1.00
336;DHT22;156;48.738;9.228;2023-07-31T06:50:49;17.40;1.00
336;DHT22;156;48.738;9.228;2023-07-31T06:53:20;17.30;1.00
336;DHT22;156;48.738;9.228;2023-07-31T06:55:47;17.30;1.00
336;DHT22;156;48.738;9.228;2023-07-31T06:58:23;17.30;1.00
336;DHT22;156;48.738;9.228;2023-07-31T07:00:50;17.50;1.00
336;DHT22;156;48.738;9.228;2023-07-31T07:03:18;17.70;1.00
336;DHT22;156;48.738;9.228;2023-07-31T07:05:47;17.60;1.00
336;DHT22;156;48.738;9.228;2023-07-31T07:08:17;17.70;1.00
336;DHT22;156;48.738;9.228;2023-07-31T07:10:44;17.60;1.00
336;DHT22;156;48.738;9.228;2023-07-31T07:13:11;17.60;1.00
336;DHT22;156;48.738;9.228;2023-07-31T07:15:39;17.60;1.00
336;DHT22;156;48.738;9.228;2023-07-31T07:18:07;17.60;1.00
336;DHT22;156;48.738;9.228;2023-07-31T07:20:36;17.60;1.00
336;DHT22;156;48.738;9.228;2023-07-31T07:23:04;17.80;1.00
336;DHT22;156;48.738;9.228;2023-07-31T07:25:37;18.10;1.00
336;DHT22;156;48.738;9.228;2023-07-31T07:28:04;18.40;1.00
336;DHT22;156;48.738;9.228;2023-07-31T07:30:31;18.20;1.00
336;DHT22;156;48.738;9.228;2023-07-31T07:33:00;18.20;1.00
336;DHT22;156;48.738;9.228;2023-07-31T07:35:27;18.40;1.00
336;DHT22;156;48.738;9.228;2023-07-31T07:37:54;18.40;1.00
336;DHT22;156;48.738;9.228;2023-07-31T07:40:23;18.30;1.00
336;DHT22;156;48.738;9.228;2023-07-31T07:42:52;18.30;1.00
336;DHT22;156;48.738;9.228;2023-07-31T07:45:19;18.40;1.00
336;DHT22;156;48.738;9.228;2023-07-31T07:47:46;18.30;1.00
336;DHT22;156;48.738;9.228;2023-07-31T07:50:12;18.40;1.00
336;DHT22;156;48.738;9.228;2023-07-31T07:52:39;18.60;1.00
336;DHT22;156;48.738;9.228;2023-07-31T07:55:07;18.50;1.00
336;DHT22;156;48.738;9.228;2023-07-31T07:57:34;18.40;1.00
336;DHT22;156;48.738;9.228;2023-07-31T08:00:03;18.50;1.00
336;DHT22;156;48.738;9.228;2023-07-31T08:02:30;18.60;1.00
336;DHT22;156;48.738;9.228;2023-07-31T08:04:57;18.70;1.00
336;DHT22;156;48.738;9.228;2023-07-31T08:07:26;18.80;1.00
336;DHT22;156;48.738;9.228;2023-07-31T08:09:53;19.10;1.00
336;DHT22;156;48.738;9.228;2023-07-31T08:12:20;19.10;1.00
336;DHT22;156;48.738;9.228;2023-07-31T08:14:46;18.80;1.00
336;DHT22;156;48.738;9.228;2023-07-31T08:17:17;18.80;1.00
336;DHT22;156;48.738;9.228;2023-07-31T08:19:44;18.70;1.00
336;DHT22;156;48.738;9.228;2023-07-31T08:22:11;18.70;1.00
336;DHT22;156;48.738;9.228;2023-07-31T08:24:43;18.70;1.00
336;DHT22;156;48.738;9.228;2023-07-31T08:27:11;18.80;1.00
336;DHT22;156;48.738;9.228;2023-07-31T08:29:38;18.70;1.00
336;DHT22;156;48.738;9.228;2023-07-31T08:32:06;18.80;1.00
336;DHT22;156;48.738;9.228;2023-07-31T08:34:34;19.30;1.00
336;DHT22;156;48.738;9.228;2023-07-31T08:37:03;19.20;1.00
336;DHT22;156;48.738;9.228;2023-07-31T08:39:30;19.40;1.00
336;DHT22;156;48.738;9.228;2023-07-31T08:41:58;19.50;1.00
336;DHT22;156;48.738;9.228;2023-07-31T08:44:29;19.50;1.00
336;DHT22;156;48.738;9.228;2023-07-31T08:46:56;19.60;1.00
336;DHT22;156;48.738;9.228;2023-07-31T08:49:23;19.70;1.00
336;DHT22;156;48.738;9.228;2023-07-31T08:51:52;19.10;1.00
336;DHT22;156;48.738;9.228;2023-07-31T08:54:20;19.40;1.00
336;DHT22;156;48.738;9.228;2023-07-31T08:56:48;19.10;1.00
336;DHT22;156;48.738;9.228;2023-07-31T08:59:16;19.20;1.00
336;DHT22;156;48.738;9.228;2023-07-31T09:01:50;19.10;1.00
336;DHT22;156;48.738;9.228;2023-07-31T09:04:19;19.50;1.00
336;DHT22;156;48.738;9.228;2023-07-31T09:06:48;19.60;1.00
336;DHT22;156;48.738;9.228;2023-07-31T09:09:16;19.80;1.00
336;DHT22;156;48.738;9.228;2023-07-31T09:11:44;19.90;1.00
336;DHT22;156;48.738;9.228;2023-07-31T09:14:13;19.40;1.00
336;DHT22;156;48.738;9.228;2023-07-31T09:16:52;19.50;1.00
336;DHT22;156;48.738;9.228;2023-07-31T09:19:25;19.60;1.00
336;DHT22;156;48.738;9.228;2023-07-31T09:21:52;19.90;1.00
336;DHT22;156;48.738;9.228;2023-07-31T09:24:26;20.00;1.00
336;DHT22;156;48.738;9.228;2023-07-31T09:26:56;20.20;1.00
336;DHT22;156;48.738;9.228;2023-07-31T09:29:24;20.30;1.00
336;DHT22;156;48.738;9.228;2023-07-31T09:31:57;20.20;1.00
336;DHT22;156;48.738;9.228;2023-07-31T09:34:29;20.00;1.00
336;DHT22;156;48.738;9.228;2023-07-31T09:37:01;20.00;1.00
336;DHT22;156;48.738;9.228;2023-07-31T09:39:30;20.20;1.00
336;DHT22;156;48.738;9.228;2023-07-31T09:41:57;20.30;1.00
336;DHT22;156;48.738;9.228;2023-07-31T09:44:40;20.30;1.00
336;DHT22;156;48.738;9.228;2023-07-31T09:47:08;20.30;1.00
336;DHT22;156;48.738;9.228;2023-07-31T09:49:47;19.90;1.00
336;DHT22;156;48.738;9.228;2023-07-31T09:52:14;19.50;1.00
336;DHT22;156;48.738;9.228;2023-07-31T09:54:42;19.40;1.00
336;DHT22;156;48.738;9.228;2023-07-31T09:57:09;19.40;1.00
336;DHT22;156;48.738;9.228;2023-07-31T09:59:37;19.60;1.00
336;DHT22;156;48.738;9.228;2023-07-31T10:04:34;19.80;1.00
336;DHT22;156;48.738;9.228;2023-07-31T10:07:02;20.10;1.00
336;DHT22;156;48.738;9.228;2023-07-31T10:09:31;19.70;1.00
336;DHT22;156;48.738;9.228;2023-07-31T10:12:02;19.80;1.00
336;DHT22;156;48.738;9.228;2023-07-31T10:14:37;20.00;1.00
336;DHT22;156;48.738;9.228;2023-07-31T10:17:05;20.00;1.00
336;DHT22;156;48.738;9.228;2023-07-31T10:19:34;20.20;1.00
336;DHT22;156;48.738;9.228;2023-07-31T10:22:03;20.30;1.00
336;DHT22;156;48.738;9.228;2023-07-31T10:24:31;20.30;1.00
336;DHT22;156;48.738;9.228;2023-07-31T10:27:01;20.30;1.00
336;DHT22;156;48.738;9.228;2023-07-31T10:29:29;20.50;1.00
336;DHT22;156;48.738;9.228;2023-07-31T10:31:57;20.70;1.00
336;DHT22;156;48.738;9.228;2023-07-31T10:34:25;20.50;1.00
336;DHT22;156;48.738;9.228;2023-07-31T10:37:19;20.50;1.00
336;DHT22;156;48.738;9.228;2023-07-31T10:39:58;20.40;1.00
336;DHT22;156;48.738;9.228;2023-07-31T10:42:32;20.40;1.00
336;DHT22;156;48.738;9.228;2023-07-31T10:45:01;20.70;1.00
336;DHT22;156;48.738;9.228;2023-07-31T10:47:29;20.70;1.00
336;DHT22;156;48.738;9.228;2023-07-31T10:50:16;20.90;1.00
336;DHT22;156;48.738;9.228;2023-07-31T10:52:47;20.60;1.00
336;DHT22;156;48.738;9.228;2023-07-31T10:55:23;20.40;1.00
336;DHT22;156;48.738;9.228;2023-07-31T10:57:52;20.50;1.00
336;DHT22;156;48.738;9.228;2023-07-31T11:00:21;20.70;1.00
336;DHT22;156;48.738;9.228;2023-07-31T11:03:02;20.90;1.00
336;DHT22;156;48.738;9.228;2023-07-31T11:05:49;21.00;1.00
336;DHT22;156;48.738;9.228;2023-07-31T11:08:18;21.00;1.00
336;DHT22;156;48.738;9.228;2023-07-31T11:10:46;21.30;1.00
336;DHT22;156;48.738;9.228;2023-07-31T11:13:15;21.40;1.00
336;DHT22;156;48.738;9.228;2023-07-31T11:15:42;21.30;1.00
336;DHT22;156;48.738;9.228;2023-07-31T11:18:08;21.30;1.00
336;DHT22;156;48.738;9.228;2023-07-31T11:20:37;21.30;1.00
336;DHT22;156;48.738;9.228;2023-07-31T11:23:07;21.30;1.00
336;DHT22;156;48.738;9.228;2023-07-31T11:25:36;21.30;1.00
336;DHT22;156;48.738;9.228;2023-07-31T11:28:05;20.10;1.00
336;DHT22;156;48.738;9.228;2023-07-31T11:30:33;21.30;1.00
336;DHT22;156;48.738;9.228;2023-07-31T11:33:05;21.10;1.00
336;DHT22;156;48.738;9.228;2023-07-31T11:35:33;21.20;1.00
336;DHT22;156;48.738;9.228;2023-07-31T11:38:00;21.20;1.00
336;DHT22;156;48.738;9.228;2023-07-31T11:40:27;21.20;1.00
336;DHT22;156;48.738;9.228;2023-07-31T11:42:56;21.10;1.00
336;DHT22;156;48.738;9.228;2023-07-31T11:45:25;21.00;1.00
336;DHT22;156;48.738;9.228;2023-07-31T11:47:55;21.20;1.00
336;DHT22;156;48.738;9.228;2023-07-31T11:50:24;21.30;1.00
336;DHT22;156;48.738;9.228;2023-07-31T11:52:54;21.30;1.00
336;DHT22;156;48.738;9.228;2023-07-31T11:55:23;21.10;1.00
336;DHT22;156;48.738;9.228;2023-07-31T11:57:55;21.00;1.00
336;DHT22;156;48.738;9.228;2023-07-31T12:00:23;21.10;1.00
336;DHT22;156;48.738;9.228;2023-07-31T12:02:51;20.80;1.00
336;DHT22;156;48.738;9.228;2023-07-31T12:05:19;21.00;1.00
336;DHT22;156;48.738;9.228;2023-07-31T12:07:50;20.90;1.00
336;DHT22;156;48.738;9.228;2023-07-31T12:10:25;20.90;1.00
336;DHT22;156;48.738;9.228;2023-07-31T12:13:00;21.20;1.00
336;DHT22;156;48.738;9.228;2023-07-31T12:15:37;21.20;1.00
336;DHT22;156;48.738;9.228;2023-07-31T12:18:06;21.10;1.00
336;DHT22;156;48.738;9.228;2023-07-31T12:20:35;21.00;1.00
336;DHT22;156;48.738;9.228;2023-07-31T12:23:02;21.20;1.00
336;DHT22;156;48.738;9.228;2023-07-31T12:25:33;21.50;1.00
336;DHT22;156;48.738;9.228;2023-07-31T12:28:05;21.30;1.00
336;DHT22;156;48.738;9.228;2023-07-31T12:30:37;21.10;1.00
336;DHT22;156;48.738;9.228;2023-07-31T12:33:05;21.20;1.00
336;DHT22;156;48.738;9.228;2023-07-31T12:35:39;21.30;1.00
336;DHT22;156;48.738;9.228;2023-07-31T12:38:07;21.20;1.00
336;DHT22;156;48.738;9.228;2023-07-31T12:40:37;21.20;1.00
336;DHT22;156;48.738;9.228;2023-07-31T12:43:05;21.00;1.00
336;DHT22;156;48.738;9.228;2023-07-31T12:45:33;20.90;1.00
336;DHT22;156;48.738;9.228;2023-07-31T12:48:00;21.00;1.00
336;DHT22;156;48.738;9.228;2023-07-31T12:50:29;20.90;1.00
336;DHT22;156;48.738;9.228;2023-07-31T12:52:59;21.00;1.00
336;DHT22;156;48.738;9.228;2023-07-31T12:55:29;20.90;1.00
336;DHT22;156;48.738;9.228;2023-07-31T12:58:11;21.10;1.00
336;DHT22;156;48.738;9.228;2023-07-31T13:00:38;21.10;1.00
336;DHT22;156;48.738;9.228;2023-07-31T13:03:08;21.20;1.00
336;DHT22;156;48.738;9.228;2023-07-31T13:05:38;21.20;1.00
336;DHT22;156;48.738;9.228;2023-07-31T13:08:07;21.40;1.00
336;DHT22;156;48.738;9.228;2023-07-31T13:10:39;21.60;1.00
336;DHT22;156;48.738;9.228;2023-07-31T13:13:07;21.60;1.00
336;DHT22;156;48.738;9.228;2023-07-31T13:15:34;21.40;1.00
336;DHT22;156;48.738;9.228;2023-07-31T13:18:01;21.40;1.00
336;DHT22;156;48.738;9.228;2023-07-31T13:20:34;21.40;1.00
336;DHT22;156;48.738;9.228;2023-07-31T13:23:04;21.50;1.00
336;DHT22;156;48.738;9.228;2023-07-31T13:25:32;21.70;1.00
336;DHT22;156;48.738;9.228;2023-07-31T13:27:59;21.90;1.00
336;DHT22;156;48.738;9.228;2023-07-31T13:30:26;21.90;1.00
336;DHT22;156;48.738;9.228;2023-07-31T13:32:53;22.10;1.00
336;DHT22;156;48.738;9.228;2023-07-31T13:35:20;22.20;1.00
336;DHT22;156;48.738;9.228;2023-07-31T13:37:47;22.30;1.00
336;DHT22;156;48.738;9.228;2023-07-31T13:40:13;22.40;1.00
336;DHT22;156;48.738;9.228;2023-07-31T13:42:42;22.60;1.00
336;DHT22;156;48.738;9.228;2023-07-31T13:45:09;22.80;1.00
336;DHT22;156;48.738;9.228;2023-07-31T13:47:39;23.10;1.00
336;DHT22;156;48.738;9.228;2023-07-31T13:50:07;23.00;1.00
336;DHT22;156;48.738;9.228;2023-07-31T13:52:34;23.20;1.00
336;DHT22;156;48.738;9.228;2023-07-31T13:55:01;23.20;1.00
336;DHT22;156;48.738;9.228;2023-07-31T13:57:27;22.90;1.00
336;DHT22;156;48.738;9.228;2023-07-31T13:59:56;22.90;1.00
336;DHT22;156;48.738;9.228;2023-07-31T14:02:23;23.00;1.00
336;DHT22;156;48.738;9.228;2023-07-31T14:04:50;23.20;1.00
336;DHT22;156;48.738;9.228;2023-07-31T14:07:17;23.30;1.00
336;DHT22;156;48.738;9.228;2023-07-31T14:09:44;23.10;1.00
336;DHT22;156;48.738;9.228;2023-07-31T14:12:11;22.80;1.00
336;DHT22;156;48.738;9.228;2023-07-31T14:14:38;23.00;1.00
336;DHT22;156;48.738;9.228;2023-07-31T14:17:06;23.20;1.00
336;DHT22;156;48.738;9.228;2023-07-31T14:19:35;23.30;1.00
336;DHT22;156;48.738;9.228;2023-07-31T14:22:03;22.90;1.00
336;DHT22;156;48.738;9.228;2023-07-31T14:24:30;22.70;1.00
336;DHT22;156;48.738;9.228;2023-07-31T14:26:57;22.80;1.00
336;DHT22;156;48.738;9.228;2023-07-31T14:29:24;22.70;1.00
336;DHT22;156;48.738;9.228;2023-07-31T14:31:51;22.40;1.00
336;DHT22;156;48.738;9.228;2023-07-31T14:34:19;22.50;1.00
336;DHT22;156;48.738;9.228;2023-07-31T14:36:46;22.70;1.00
336;DHT22;156;48.738;9.228;2023-07-31T14:39:13;22.80;1.00
336;DHT22;156;48.738;9.228;2023-07-31T14:41:40;22.70;1.00
336;DHT22;156;48.738;9.228;2023-07-31T14:44:07;22.40;1.00
336;DHT22;156;48.738;9.228;2023-07-31T14:46:34;22.20;1.00
336;DHT22;156;48.738;9.228;2023-07-31T14:49:01;22.30;1.00
336;DHT22;156;48.738;9.228;2023-07-31T14:51:29;22.50;1.00
336;DHT22;156;48.738;9.228;2023-07-31T14:53:56;22.70;1.00
336;DHT22;156;48.738;9.228;2023-07-31T14:56:23;22.90;1.00
336;DHT22;156;48.738;9.228;2023-07-31T14:58:50;22.70;1.00
336;DHT22;156;48.738;9.228;2023-07-31T15:01:17;22.90;1.00
336;DHT22;156;48.738;9.228;2023-07-31T15:03:44;22.60;1.00
336;DHT22;156;48.738;9.228;2023-07-31T15:06:11;22.40;1.00
336;DHT22;156;48.738;9.228;2023-07-31T15:08:39;22.80;1.00
336;DHT22;156;48.738;9.228;2023-07-31T15:11:09;22.70;1.00
336;DHT22;156;48.738;9.228;2023-07-31T15:13:36;22.90;1.00
336;DHT22;156;48.738;9.228;2023-07-31T15:16:03;23.00;1.00
336;DHT22;156;48.738;9.228;2023-07-31T15:18:33;23.30;1.00
336;DHT22;156;48.738;9.228;2023-07-31T15:21:00;23.60;1.00
336;DHT22;156;48.738;9.228;2023-07-31T15:23:27;23.60;1.00
336;DHT22;156;48.738;9.228;2023-07-31T15:25:55;23.90;1.00
336;DHT22;156;48.738;9.228;2023-07-31T15:28:22;23.20;1.00
336;DHT22;156;48.738;9.228;2023-07-31T15:30:49;23.40;1.00
336;DHT22;156;48.738;9.228;2023-07-31T15:33:16;23.40;1.00
336;DHT22;156;48.738;9.228;2023-07-31T15:35:43;23.50;1.00
336;DHT22;156;48.738;9.228;2023-07-31T15:38:10;23.90;1.00
336;DHT22;156;48.738;9.228;2023-07-31T15:40:38;24.40;1.00
336;DHT22;156;48.738;9.228;2023-07-31T15:43:11;24.50;1.00
336;DHT22;156;48.738;9.228;2023-07-31T15:45:40;24.50;1.00
336;DHT22;156;48.738;9.228;2023-07-31T15:48:07;24.70;1.00
336;DHT22;156;48.738;9.228;2023-07-31T15:50:35;24.40;1.00
336;DHT22;156;48.738;9.228;2023-07-31T15:53:02;24.50;1.00
336;DHT22;156;48.738;9.228;2023-07-31T15:55:29;24.80;1.00
336;DHT22;156;48.738;9.228;2023-07-31T15:57:56;25.10;1.00
336;DHT22;156;48.738;9.228;2023-07-31T16:00:24;25.00;1.00
336;DHT22;156;48.738;9.228;2023-07-31T16:02:51;24.90;1.00
336;DHT22;156;48.738;9.228;2023-07-31T16:05:18;25.40;1.00
336;DHT22;156;48.738;9.228;2023-07-31T16:07:45;24.60;1.00
336;DHT22;156;48.738;9.228;2023-07-31T16:10:12;24.50;1.00
336;DHT22;156;48.738;9.228;2023-07-31T16:12:39;24.90;1.00
336;DHT22;156;48.738;9.228;2023-07-31T16:15:09;24.40;1.00
336;DHT22;156;48.738;9.228;2023-07-31T16:17:39;24.70;1.00
336;DHT22;156;48.738;9.228;2023-07-31T16:20:07;24.50;1.00
336;DHT22;156;48.738;9.228;2023-07-31T16:22:34;24.90;1.00
336;DHT22;156;48.738;9.228;2023-07-31T16:25:04;25.20;1.00
336;DHT22;156;48.738;9.228;2023-07-31T16:27:32;25.80;1.00
336;DHT22;156;48.738;9.228;2023-07-31T16:29:59;25.20;1.00
336;DHT22;156;48.738;9.228;2023-07-31T16:32:26;24.50;1.00
336;DHT22;156;48.738;9.228;2023-07-31T16:34:54;23.50;1.00
336;DHT22;156;48.738;9.228;2023-07-31T16:37:21;23.70;1.00
336;DHT22;156;48.738;9.228;2023-07-31T16:39:48;23.80;1.00
336;DHT22;156;48.738;9.228;2023-07-31T16:42:17;24.60;1.00
336;DHT22;156;48.738;9.228;2023-07-31T16:44:44;25.20;1.00
336;DHT22;156;48.738;9.228;2023-07-31T16:47:11;25.20;1.00
336;DHT22;156;48.738;9.228;2023-07-31T16:49:38;24.80;1.00
336;DHT22;156;48.738;9.228;2023-07-31T16:52:07;24.30;1.00
336;DHT22;156;48.738;9.228;2023-07-31T16:54:34;23.90;1.00
336;DHT22;156;48.738;9.228;2023-07-31T16:57:01;23.70;1.00
336;DHT22;156;48.738;9.228;2023-07-31T16:59:33;23.60;1.00
336;DHT22;156;48.738;9.228;2023-07-31T17:02:03;22.70;1.00
336;DHT22;156;48.738;9.228;2023-07-31T17:04:32;24.00;1.00
336;DHT22;156;48.738;9.228;2023-07-31T17:07:02;23.10;1.00
336;DHT22;156;48.738;9.228;2023-07-31T17:09:30;23.00;1.00
336;DHT22;156;48.738;9.228;2023-07-31T17:11:57;22.80;1.00
336;DHT22;156;48.738;9.228;2023-07-31T17:14:24;22.60;1.00